Time;durP1;ratioP1;P1;durP2;ratioP2;P2;SDS_P1;SDS_P2;PMS_P1;PMS_P2;Temp;Humidity;BMP_temperature;BMP_pressure;BME280_temperature;BME280_humidity;BME280_pressure;Samples;Min_cycle;Max_cycle;Signal;HPM_P1;HPM_P2
2021/11/18 00:00:11;;;;;;;4.22;1.08;;;;;;;26.13;32.10;97628.81;5031693;28;20028;-33
2021/11/18 00:02:36;;;;;;;1.17;0.60;;;;;;;26.13;32.06;97628.81;5027609;28;20028;-34
2021/11/18 00:05:02;;;;;;;1.58;0.73;;;;;;;26.12;31.93;97643.72;5021922;28;20087;-33
2021/11/18 00:07:28;;;;;;;2.35;0.80;;;;;;;26.12;31.89;97635.84;5025595;28;20954;-35
2021/11/18 00:09:53;;;;;;;1.25;0.85;;;;;;;26.12;31.97;97632.38;5023605;28;20040;-32
2021/11/18 00:12:18;;;;;;;1.30;0.70;;;;;;;26.12;31.91;97635.00;5026606;28;20051;-34
2021/11/18 00:14:44;;;;;;;1.73;0.88;;;;;;;26.12;32.00;97637.63;5025322;28;20021;-34
2021/11/18 00:17:09;;;;;;;0.95;0.77;;;;;;;26.10;31.98;97638.50;5024007;28;22668;-32
2021/11/18 00:19:34;;;;;;;1.30;0.73;;;;;;;26.10;32.02;97633.25;5016057;28;20032;-33
2021/11/18 00:22:00;;;;;;;0.80;0.60;;;;;;;26.12;31.87;97632.38;5015919;28;20359;-32
2021/11/18 00:24:25;;;;;;;0.93;0.90;;;;;;;26.10;31.90;97630.63;5022929;28;20033;-31
2021/11/18 00:26:54;;;;;;;1.02;0.80;;;;;;;26.10;31.92;97635.88;5019695;28;20036;-31
2021/11/18 00:29:21;;;;;;;1.48;0.80;;;;;;;26.09;32.01;97634.19;5015026;28;20037;-30
2021/11/18 00:31:46;;;;;;;0.90;0.60;;;;;;;26.08;32.08;97624.59;5011472;28;20035;-32
2021/11/18 00:34:13;;;;;;;1.20;0.68;;;;;;;26.09;32.05;97622.84;5012749;28;20032;-33
2021/11/18 00:36:38;;;;;;;1.25;0.90;;;;;;;26.09;31.95;97625.47;5034581;28;20029;-32
2021/11/18 00:39:05;;;;;;;2.97;0.80;;;;;;;26.08;32.04;97621.97;5021053;28;20201;-33
2021/11/18 00:41:31;;;;;;;1.38;0.80;;;;;;;26.08;32.01;97629.84;5022055;28;20025;-32
2021/11/18 00:43:57;;;;;;;1.58;0.65;;;;;;;26.08;32.03;97627.22;5017809;28;20068;-34
2021/11/18 00:46:22;;;;;;;1.08;0.65;;;;;;;26.09;32.06;97622.84;5019506;28;20025;-32
2021/11/18 00:48:48;;;;;;;0.60;0.60;;;;;;;26.09;32.34;97628.09;5013329;28;20370;-34
2021/11/18 00:51:15;;;;;;;1.77;0.90;;;;;;;26.07;31.90;97633.41;5018193;28;20110;-31
2021/11/18 00:53:48;;;;;;;1.17;0.68;;;;;;;26.07;32.05;97620.28;5019859;28;20032;-35
2021/11/18 00:56:14;;;;;;;1.02;0.70;;;;;;;26.07;32.03;97620.28;5022872;28;20554;-34
2021/11/18 00:58:39;;;;;;;1.83;0.70;;;;;;;26.06;32.05;97631.72;5022822;28;20032;-34
2021/11/18 01:01:05;;;;;;;1.50;0.55;;;;;;;26.07;31.88;97630.78;5013760;28;20029;-31
2021/11/18 01:03:30;;;;;;;1.00;0.80;;;;;;;26.07;32.01;97629.91;5022135;28;20632;-32
2021/11/18 01:05:56;;;;;;;2.63;0.60;;;;;;;26.06;31.98;97625.59;5026340;28;20686;-32
2021/11/18 01:08:21;;;;;;;1.52;0.70;;;;;;;26.06;31.88;97626.47;5015159;28;20545;-31
2021/11/18 01:11:06;;;;;;;1.38;0.52;;;;;;;26.06;32.08;97629.09;5015724;28;20925;-32
2021/11/18 01:13:32;;;;;;;1.40;0.75;;;;;;;26.05;32.05;97629.97;5019624;28;20029;-33
2021/11/18 01:15:58;;;;;;;1.42;0.70;;;;;;;26.06;32.03;97633.47;5033622;28;20476;-32
2021/11/18 01:18:23;;;;;;;1.48;0.68;;;;;;;26.05;32.04;97632.59;5013670;28;20898;-33
2021/11/18 01:20:49;;;;;;;0.75;0.55;;;;;;;26.06;31.85;97628.22;5018466;28;20033;-35
2021/11/18 01:23:18;;;;;;;1.05;0.63;;;;;;;26.05;31.90;97631.75;5028599;28;20033;-32
2021/11/18 01:25:44;;;;;;;0.95;0.47;;;;;;;26.04;31.87;97620.41;5032810;28;20017;-34
2021/11/18 01:28:09;;;;;;;1.85;0.85;;;;;;;26.04;32.01;97620.41;5012517;28;20033;-32
2021/11/18 01:30:35;;;;;;;0.90;0.60;;;;;;;26.04;31.94;97625.66;5017143;28;20111;-38
2021/11/18 01:33:02;;;;;;;0.60;0.60;;;;;;;26.03;31.87;97631.81;5017423;28;20117;-37
2021/11/18 01:35:27;;;;;;;0.77;0.52;;;;;;;26.02;31.87;97638.00;5016646;28;20071;-34
2021/11/18 01:37:53;;;;;;;1.23;0.82;;;;;;;26.02;31.95;97627.50;5020127;28;20029;-32
2021/11/18 01:40:21;;;;;;;0.73;0.40;;;;;;;26.03;31.92;97644.97;5017256;28;20501;-32
2021/11/18 01:42:47;;;;;;;1.60;0.70;;;;;;;26.03;31.97;97654.59;5015154;28;20123;-32
2021/11/18 01:45:13;;;;;;;0.90;0.60;;;;;;;26.03;31.92;97647.59;5014773;28;20506;-32
2021/11/18 01:47:39;;;;;;;1.58;0.80;;;;;;;26.02;31.94;97653.75;5018601;28;20037;-32
2021/11/18 01:50:05;;;;;;;1.85;0.80;;;;;;;26.01;31.94;97652.03;5034649;28;23289;-32
2021/11/18 01:52:30;;;;;;;0.73;0.70;;;;;;;26.01;31.83;97654.66;5015987;28;20036;-31
2021/11/18 01:54:56;;;;;;;0.98;0.65;;;;;;;26.02;31.99;97647.66;5019310;28;20040;-35
2021/11/18 01:57:29;;;;;;;1.38;0.60;;;;;;;26.01;31.91;97657.28;5013885;28;20040;-31
2021/11/18 01:59:54;;;;;;;1.58;0.70;;;;;;;26.01;31.96;97657.28;5015832;28;20036;-34
2021/11/18 02:02:22;;;;;;;1.40;0.68;;;;;;;26.01;31.92;97651.19;5017260;28;20036;-33
2021/11/18 02:04:52;;;;;;;1.25;0.70;;;;;;;26.00;32.08;97645.06;5017825;28;20032;-34
2021/11/18 02:07:17;;;;;;;1.30;0.60;;;;;;;26.01;32.00;97645.94;5018699;28;20558;-32
2021/11/18 02:09:44;;;;;;;3.75;0.60;;;;;;;26.00;32.04;97639.81;5015267;28;20149;-31
2021/11/18 02:12:12;;;;;;;2.20;0.60;;;;;;;26.00;31.95;97650.31;5021794;28;20036;-34
2021/11/18 02:14:37;;;;;;;1.30;0.95;;;;;;;26.00;31.89;97647.69;5027855;28;20135;-36
2021/11/18 02:17:04;;;;;;;0.82;0.57;;;;;;;26.00;31.96;97650.31;5026730;28;20473;-35
2021/11/18 02:19:54;;;;;;;0.98;0.73;;;;;;;25.99;32.10;97646.00;5037760;28;20029;-33
2021/11/18 02:22:19;;;;;;;2.40;0.90;;;;;;;25.98;32.05;97649.53;5021385;28;20044;-33
2021/11/18 02:24:50;;;;;;;2.80;0.70;;;;;;;26.00;31.95;97654.75;5032993;28;20024;-35
2021/11/18 02:27:18;;;;;;;0.87;0.70;;;;;;;25.99;31.85;97658.25;5028431;28;20033;-33
2021/11/18 02:29:45;;;;;;;2.97;0.85;;;;;;;25.98;31.97;97652.19;5029524;28;20555;-36
2021/11/18 02:32:11;;;;;;;1.00;0.77;;;;;;;25.98;31.77;97651.31;5021042;28;20496;-32
2021/11/18 02:34:41;;;;;;;1.20;0.70;;;;;;;25.97;31.90;97660.94;5020112;28;20033;-33
2021/11/18 02:37:07;;;;;;;1.20;0.50;;;;;;;25.97;32.00;97655.69;5033046;28;20548;-30
2021/11/18 02:39:34;;;;;;;0.77;0.55;;;;;;;25.97;32.01;97666.19;5007403;28;20124;-32
2021/11/18 02:41:59;;;;;;;1.27;0.80;;;;;;;25.97;32.02;97679.31;5025811;28;20037;-32
2021/11/18 02:44:28;;;;;;;0.75;0.60;;;;;;;25.96;31.90;97680.25;5024446;28;20130;-32
2021/11/18 02:46:53;;;;;;;3.08;0.77;;;;;;;25.96;31.91;97680.25;5025467;28;20020;-36
2021/11/18 02:49:19;;;;;;;0.80;0.70;;;;;;;25.95;31.87;97679.41;5024548;28;20455;-35
2021/11/18 02:51:44;;;;;;;1.15;0.50;;;;;;;25.96;32.08;97680.25;5031444;28;20036;-34
2021/11/18 02:54:09;;;;;;;0.63;0.60;;;;;;;25.96;31.96;97685.50;5026910;28;20040;-36
2021/11/18 02:56:35;;;;;;;0.60;0.52;;;;;;;25.95;32.00;97684.66;5016296;28;20037;-31
2021/11/18 02:59:00;;;;;;;0.80;0.55;;;;;;;25.94;32.01;97685.56;5025089;28;20028;-31
2021/11/18 03:01:31;;;;;;;1.35;0.60;;;;;;;25.95;31.95;97679.41;5029117;28;20029;-32
2021/11/18 03:03:57;;;;;;;2.08;0.77;;;;;;;25.94;32.02;97682.94;5026942;28;20136;-36
2021/11/18 03:06:23;;;;;;;0.57;0.55;;;;;;;25.94;32.08;97671.59;5021965;28;20487;-31
2021/11/18 03:08:48;;;;;;;1.23;0.60;;;;;;;25.94;31.89;97687.34;5023786;28;20037;-35
2021/11/18 03:11:15;;;;;;;0.90;0.70;;;;;;;25.94;31.92;97687.34;5032981;28;20977;-33
2021/11/18 03:13:40;;;;;;;0.88;0.60;;;;;;;25.94;31.89;97687.34;5015714;28;21979;-32
2021/11/18 03:16:06;;;;;;;1.55;0.50;;;;;;;25.93;31.87;97690.91;5034728;28;20024;-32
2021/11/18 03:18:31;;;;;;;0.55;0.50;;;;;;;25.93;31.81;97685.66;5017831;28;20032;-31
2021/11/18 03:20:57;;;;;;;1.23;0.57;;;;;;;25.93;31.89;97685.66;5019688;28;20817;-31
2021/11/18 03:23:23;;;;;;;1.90;0.70;;;;;;;25.93;32.05;97690.91;5019517;28;20031;-32
2021/11/18 03:25:48;;;;;;;0.68;0.65;;;;;;;25.92;31.97;97683.91;5024123;28;20469;-33
2021/11/18 03:28:14;;;;;;;2.75;0.57;;;;;;;25.91;31.95;97683.06;5020838;28;20574;-32
2021/11/18 03:30:42;;;;;;;0.40;0.40;;;;;;;25.92;32.02;97683.91;5020355;28;20037;-32
2021/11/18 03:33:12;;;;;;;3.50;1.00;;;;;;;25.92;31.89;97683.91;5023786;28;21701;-35
2021/11/18 03:35:38;;;;;;;2.47;1.30;;;;;;;25.91;31.50;97683.06;5017603;28;20032;-33
2021/11/18 03:38:04;;;;;;;1.95;0.75;;;;;;;25.90;31.64;97680.50;5020435;28;20032;-30
2021/11/18 03:40:29;;;;;;;1.85;0.77;;;;;;;25.90;31.72;97685.75;5020100;28;20062;-34
2021/11/18 03:42:55;;;;;;;2.15;0.80;;;;;;;25.88;31.71;97683.19;5017337;28;20102;-32
2021/11/18 03:45:21;;;;;;;0.90;0.60;;;;;;;25.88;31.87;97695.44;5019378;28;20033;-30
2021/11/18 03:47:47;;;;;;;4.90;0.70;;;;;;;25.88;31.84;97690.19;5024560;28;20044;-34
2021/11/18 03:50:12;;;;;;;3.83;0.73;;;;;;;25.88;31.82;97687.56;5016123;28;20079;-29
2021/11/18 03:52:38;;;;;;;1.95;0.70;;;;;;;25.88;31.86;97682.31;5017344;28;20087;-33
2021/11/18 03:55:08;;;;;;;2.90;0.60;;;;;;;25.87;31.74;97681.47;5020340;28;20068;-35
2021/11/18 03:57:33;;;;;;;4.47;0.73;;;;;;;25.88;31.83;97682.31;5012214;28;20093;-31
2021/11/18 03:59:58;;;;;;;2.25;0.70;;;;;;;25.88;31.76;97682.31;5021499;28;21071;-34
2021/11/18 04:02:24;;;;;;;0.60;0.57;;;;;;;25.87;31.79;97691.13;5015492;28;20044;-32
2021/11/18 04:04:51;;;;;;;2.72;0.93;;;;;;;25.87;31.79;97692.00;5013354;28;20074;-33
2021/11/18 04:07:16;;;;;;;2.38;0.77;;;;;;;25.87;31.93;97699.00;5016348;28;20362;-33
2021/11/18 04:09:42;;;;;;;0.98;0.50;;;;;;;25.88;31.86;97708.59;5016273;28;20024;-30
2021/11/18 04:12:08;;;;;;;1.13;0.73;;;;;;;25.88;31.80;97708.59;5022999;28;20029;-31
2021/11/18 04:14:34;;;;;;;1.33;0.70;;;;;;;25.87;31.87;97704.25;5022974;28;20098;-33
2021/11/18 04:16:59;;;;;;;0.77;0.77;;;;;;;25.87;31.83;97707.75;5015932;28;20516;-31
2021/11/18 04:19:25;;;;;;;0.85;0.50;;;;;;;25.87;31.76;97712.13;5015731;28;20036;-33
2021/11/18 04:21:50;;;;;;;0.60;0.60;;;;;;;25.87;31.77;97706.88;5017114;28;20054;-31
2021/11/18 04:24:21;;;;;;;0.88;0.70;;;;;;;25.88;31.82;97711.22;5014172;28;20079;-31
2021/11/18 04:26:47;;;;;;;1.33;0.75;;;;;;;25.87;31.88;97714.75;5033434;28;20036;-29
2021/11/18 04:29:12;;;;;;;0.80;0.50;;;;;;;25.87;31.87;97709.50;5020279;28;20029;-35
2021/11/18 04:31:38;;;;;;;0.60;0.60;;;;;;;25.86;31.70;97707.81;5016549;28;20037;-34
2021/11/18 04:34:06;;;;;;;2.42;0.80;;;;;;;25.87;31.87;97705.13;5035905;28;20074;-32
2021/11/18 04:36:31;;;;;;;0.93;0.70;;;;;;;25.87;31.70;97712.13;5025614;28;20071;-45
2021/11/18 04:38:57;;;;;;;0.90;0.80;;;;;;;25.87;31.84;97714.75;5021167;28;20029;-32
2021/11/18 04:41:23;;;;;;;1.13;0.70;;;;;;;25.87;31.87;97717.38;5014940;28;22704;-31
2021/11/18 04:43:49;;;;;;;0.68;0.68;;;;;;;25.85;31.85;97720.06;5018653;28;20037;-37
2021/11/18 04:46:15;;;;;;;1.73;0.70;;;;;;;25.87;31.73;97720.00;5035274;28;20130;-35
2021/11/18 04:48:40;;;;;;;0.75;0.52;;;;;;;25.86;31.85;97720.94;5016130;28;20044;-32
2021/11/18 04:51:06;;;;;;;1.60;0.85;;;;;;;25.86;31.66;97736.69;5023443;28;20033;-33
2021/11/18 04:53:32;;;;;;;1.65;0.82;;;;;;;25.85;31.68;97743.69;5015073;28;20041;-33
2021/11/18 04:55:57;;;;;;;1.73;0.65;;;;;;;25.85;31.75;97748.94;5040105;28;20029;-35
2021/11/18 04:58:22;;;;;;;0.85;0.60;;;;;;;25.84;31.71;97749.88;5024647;28;20041;-36
2021/11/18 05:00:50;;;;;;;0.70;0.70;;;;;;;25.83;31.84;97749.00;5034600;28;20029;-30
2021/11/18 05:03:16;;;;;;;0.63;0.60;;;;;;;25.83;31.78;97748.16;5019001;28;20066;-33
2021/11/18 05:05:41;;;;;;;1.08;0.80;;;;;;;25.83;31.75;97746.38;5015178;28;20040;-38
2021/11/18 05:08:07;;;;;;;0.60;0.60;;;;;;;25.83;31.77;97743.75;4995353;28;20036;-33
2021/11/18 05:10:32;;;;;;;0.77;0.60;;;;;;;25.82;31.83;97744.66;5019701;28;20025;-32
2021/11/18 05:12:58;;;;;;;1.17;0.65;;;;;;;25.83;31.86;97751.63;5016698;28;20029;-37
2021/11/18 05:15:25;;;;;;;1.15;0.75;;;;;;;25.82;31.73;97749.91;5024565;28;20524;-31
2021/11/18 05:17:50;;;;;;;1.70;0.60;;;;;;;25.82;31.69;97747.28;5020954;28;20531;-32
2021/11/18 05:20:17;;;;;;;0.82;0.68;;;;;;;25.82;31.72;97734.16;5031802;28;20029;-34
2021/11/18 05:22:42;;;;;;;2.30;0.68;;;;;;;25.83;31.71;97737.66;5020217;28;20044;-32
2021/11/18 05:25:08;;;;;;;0.57;0.55;;;;;;;25.81;31.91;97745.59;5015915;28;20032;-31
2021/11/18 05:27:33;;;;;;;0.65;0.50;;;;;;;25.83;31.85;97749.00;5009660;28;20034;-35
2021/11/18 05:29:59;;;;;;;0.95;0.60;;;;;;;25.81;31.87;97750.84;5016784;28;20058;-34
2021/11/18 05:32:24;;;;;;;2.05;0.80;;;;;;;25.82;31.76;97755.16;5016906;28;20067;-32
2021/11/18 05:34:50;;;;;;;0.47;0.47;;;;;;;25.81;31.76;97756.09;5027385;28;20029;-31
2021/11/18 05:37:16;;;;;;;0.60;0.50;;;;;;;25.81;31.78;97769.22;5013685;28;20038;-33
2021/11/18 05:39:41;;;;;;;0.63;0.63;;;;;;;25.80;31.67;97770.13;5021721;28;21091;-30
2021/11/18 05:42:06;;;;;;;3.50;0.80;;;;;;;25.81;31.81;97777.09;5029967;28;20016;-34
2021/11/18 05:44:32;;;;;;;3.38;0.65;;;;;;;25.79;31.93;97773.69;5033001;28;20029;-35
2021/11/18 05:46:57;;;;;;;0.80;0.80;;;;;;;25.77;31.80;97775.50;5020586;28;20020;-39
2021/11/18 05:49:23;;;;;;;0.95;0.70;;;;;;;25.80;31.77;97775.41;5012944;28;23116;-38
2021/11/18 05:51:48;;;;;;;2.58;0.98;;;;;;;25.78;31.82;97771.94;5016573;28;20137;-33
2021/11/18 05:54:14;;;;;;;0.70;0.70;;;;;;;25.80;31.87;97774.53;5037984;28;20104;-32
2021/11/18 05:56:42;;;;;;;1.20;0.52;;;;;;;25.79;31.90;97770.19;5024364;28;20025;-31
2021/11/18 05:59:08;;;;;;;1.13;0.60;;;;;;;25.80;31.86;97769.28;5013728;28;20031;-33
2021/11/18 06:01:34;;;;;;;0.60;0.60;;;;;;;25.79;31.86;97773.69;5013923;28;21718;-34
2021/11/18 06:03:59;;;;;;;1.15;0.65;;;;;;;25.79;31.71;97781.56;5022083;28;20040;-37
2021/11/18 06:06:25;;;;;;;1.10;0.68;;;;;;;25.79;31.85;97781.56;5032237;28;20036;-33
2021/11/18 06:08:51;;;;;;;2.17;0.80;;;;;;;25.78;31.80;97785.09;5022129;28;20624;-32
2021/11/18 06:11:16;;;;;;;0.70;0.68;;;;;;;25.78;31.74;97790.34;5020643;28;20032;-39
2021/11/18 06:13:42;;;;;;;0.93;0.80;;;;;;;25.78;31.95;97792.94;5026147;28;20020;-36
2021/11/18 06:16:08;;;;;;;0.65;0.65;;;;;;;25.78;31.90;97786.88;5025408;28;20112;-35
2021/11/18 06:18:33;;;;;;;0.80;0.80;;;;;;;25.77;31.79;97786.00;5021150;28;20028;-32
2021/11/18 06:20:58;;;;;;;2.35;0.70;;;;;;;25.78;31.93;97784.25;5035196;28;20028;-35
2021/11/18 06:23:24;;;;;;;0.75;0.60;;;;;;;25.76;31.89;97784.28;5013162;28;20044;-32
2021/11/18 06:25:49;;;;;;;0.63;0.50;;;;;;;25.76;31.73;97794.78;5022920;28;20028;-32
2021/11/18 06:28:15;;;;;;;0.93;0.55;;;;;;;25.76;31.85;97800.03;5033457;28;20120;-32
2021/11/18 06:30:46;;;;;;;1.58;0.90;;;;;;;25.76;31.92;97791.31;5021555;28;20032;-32
2021/11/18 06:33:12;;;;;;;1.75;0.80;;;;;;;25.77;31.81;97793.00;5035516;28;20064;-32
2021/11/18 06:35:37;;;;;;;0.75;0.60;;;;;;;25.77;31.81;97795.63;5020977;28;20041;-32
2021/11/18 06:38:03;;;;;;;1.00;0.73;;;;;;;25.77;31.79;97793.88;5022967;28;20032;-37
2021/11/18 06:40:29;;;;;;;1.77;0.75;;;;;;;25.77;31.80;97790.38;5022312;28;20048;-31
2021/11/18 06:42:54;;;;;;;0.75;0.68;;;;;;;25.76;31.95;97800.03;5014921;28;20033;-33
2021/11/18 06:45:22;;;;;;;6.90;0.95;;;;;;;25.76;31.85;97800.03;5022763;28;20032;-33
2021/11/18 06:47:48;;;;;;;1.70;0.50;;;;;;;25.76;31.66;97805.31;5031967;28;20025;-34
2021/11/18 06:50:13;;;;;;;1.20;0.63;;;;;;;25.75;31.90;97806.22;5017192;28;20024;-34
2021/11/18 06:52:39;;;;;;;0.85;0.73;;;;;;;25.77;32.05;97819.25;5014962;28;20056;-31
2021/11/18 06:55:06;;;;;;;0.80;0.50;;;;;;;25.75;31.97;97821.97;5022680;28;20559;-31
2021/11/18 06:57:31;;;;;;;0.60;0.57;;;;;;;25.76;32.00;97831.56;5014353;28;20418;-32
2021/11/18 06:59:57;;;;;;;0.75;0.65;;;;;;;25.75;31.95;97827.22;5027903;28;20021;-35
2021/11/18 07:02:26;;;;;;;2.70;0.60;;;;;;;25.75;32.00;97823.72;5017752;28;20123;-32
2021/11/18 07:04:52;;;;;;;0.55;0.55;;;;;;;25.74;31.86;97822.88;5018503;28;20118;-32
2021/11/18 07:07:17;;;;;;;0.73;0.52;;;;;;;25.75;32.02;97824.59;5026746;28;20495;-35
2021/11/18 07:09:43;;;;;;;1.25;0.70;;;;;;;25.74;31.97;97825.47;5019937;28;20033;-34
2021/11/18 07:12:11;;;;;;;4.57;1.00;;;;;;;25.74;32.04;97833.38;5021253;28;20032;-31
2021/11/18 07:14:36;;;;;;;1.83;0.57;;;;;;;25.73;32.04;97847.41;5023219;28;20625;-32
2021/11/18 07:17:04;;;;;;;1.15;0.70;;;;;;;25.72;32.06;97837.81;5024669;28;20104;-31
2021/11/18 07:19:29;;;;;;;1.85;0.85;;;;;;;25.73;32.05;97839.53;5010555;28;20046;-31
2021/11/18 07:21:55;;;;;;;3.83;0.80;;;;;;;25.72;32.16;97848.31;5032383;28;20073;-32
2021/11/18 07:24:20;;;;;;;6.00;1.60;;;;;;;25.71;31.99;97849.25;5025231;28;22523;-34
2021/11/18 07:26:46;;;;;;;16.92;2.92;;;;;;;25.67;32.04;97839.75;5024712;28;20036;-35
2021/11/18 07:29:11;;;;;;;8.52;2.95;;;;;;;25.72;31.94;97850.09;5025183;28;20250;-31
2021/11/18 07:31:37;;;;;;;6.55;2.80;;;;;;;25.70;32.05;97856.25;5025001;28;20139;-33
2021/11/18 07:34:02;;;;;;;10.60;3.53;;;;;;;25.70;32.10;97845.75;5023919;28;20032;-32
2021/11/18 07:36:28;;;;;;;10.85;3.33;;;;;;;25.71;32.03;97859.75;5016706;28;20025;-31
2021/11/18 07:38:53;;;;;;;10.30;3.40;;;;;;;25.71;31.74;97857.13;5022654;28;20029;-33
2021/11/18 07:41:19;;;;;;;7.07;3.50;;;;;;;25.68;30.75;97860.72;5024570;28;20037;-36
2021/11/18 07:43:45;;;;;;;7.30;3.67;;;;;;;25.65;30.31;97860.81;5015345;28;20052;-36
2021/11/18 07:46:13;;;;;;;6.68;3.67;;;;;;;25.62;29.89;97865.34;5015700;28;20036;-33
2021/11/18 07:48:38;;;;;;;8.52;4.90;;;;;;;25.59;29.52;97870.69;5016893;28;20029;-31
2021/11/18 07:51:05;;;;;;;11.02;4.57;;;;;;;25.56;29.45;97876.91;5015082;28;20399;-31
2021/11/18 07:53:30;;;;;;;10.05;4.18;;;;;;;25.52;29.18;97876.09;5019121;28;20033;-38
2021/11/18 07:55:56;;;;;;;7.28;4.10;;;;;;;25.49;29.25;97877.97;5022167;28;20036;-32
2021/11/18 07:58:21;;;;;;;7.75;3.90;;;;;;;25.44;29.24;97872.91;5017777;28;20041;-32
2021/11/18 08:00:47;;;;;;;6.82;4.40;;;;;;;25.41;29.13;97880.88;5018862;28;20030;-32
2021/11/18 08:03:13;;;;;;;8.02;3.90;;;;;;;25.37;28.94;97884.50;5018722;28;20026;-32
2021/11/18 08:05:38;;;;;;;7.90;4.03;;;;;;;25.34;28.86;97876.72;5018757;28;20035;-31
2021/11/18 08:08:04;;;;;;;6.00;3.78;;;;;;;25.30;28.75;97882.09;5017164;28;20903;-33
2021/11/18 08:10:30;;;;;;;5.70;4.38;;;;;;;25.27;28.78;97879.56;5026701;28;20065;-33
2021/11/18 08:12:55;;;;;;;7.03;3.83;;;;;;;25.24;29.26;97876.22;5024341;28;20103;-31
2021/11/18 08:15:21;;;;;;;5.68;3.80;;;;;;;25.23;28.88;97885.84;5019937;28;20036;-33
2021/11/18 08:17:46;;;;;;;6.20;3.67;;;;;;;25.17;28.87;97879.03;5014087;28;20025;-33
2021/11/18 08:20:12;;;;;;;10.07;4.05;;;;;;;25.15;28.75;97882.59;5022399;28;20033;-36
2021/11/18 08:22:38;;;;;;;6.10;3.38;;;;;;;25.11;28.65;97881.84;5018930;28;20028;-32
2021/11/18 08:25:04;;;;;;;7.88;4.18;;;;;;;25.06;28.65;97889.03;5017802;28;20043;-34
2021/11/18 08:27:29;;;;;;;6.32;3.97;;;;;;;25.03;28.74;97881.25;5014826;28;20025;-32
2021/11/18 08:29:55;;;;;;;6.47;3.20;;;;;;;25.02;29.21;97890.03;5011691;28;20086;-30
2021/11/18 08:32:20;;;;;;;6.13;2.47;;;;;;;25.02;30.01;97888.25;5017846;28;20041;-31
2021/11/18 08:34:45;;;;;;;6.60;2.70;;;;;;;25.04;30.45;97881.19;5019181;28;20055;-33
2021/11/18 08:37:11;;;;;;;7.85;2.63;;;;;;;25.07;30.57;97887.25;5020729;28;20036;-33
2021/11/18 08:39:38;;;;;;;4.55;2.58;;;;;;;25.11;30.76;97896.72;5021029;28;20036;-34
2021/11/18 08:42:05;;;;;;;4.50;2.10;;;;;;;25.13;31.12;97890.50;5016375;28;20609;-35
2021/11/18 08:44:31;;;;;;;4.05;2.20;;;;;;;25.16;31.12;97894.81;5018357;28;20033;-31
2021/11/18 08:46:57;;;;;;;5.07;2.50;;;;;;;25.19;31.16;97889.47;5025577;28;20100;-34
2021/11/18 08:49:22;;;;;;;4.18;2.03;;;;;;;25.21;31.42;97898.16;5022029;28;20032;-35
2021/11/18 08:51:48;;;;;;;5.18;2.30;;;;;;;25.24;31.27;97898.03;5024320;28;20021;-33
2021/11/18 08:54:19;;;;;;;7.68;2.10;;;;;;;25.26;31.44;97890.97;5019936;28;20033;-34
2021/11/18 08:56:44;;;;;;;5.28;2.22;;;;;;;25.30;31.48;97892.59;5005499;28;20035;-32
2021/11/18 08:59:09;;;;;;;5.97;3.13;;;;;;;25.31;31.49;97889.06;5020936;28;20033;-30
2021/11/18 09:01:51;;;;;;;6.38;3.38;;;;;;;25.35;31.66;97891.59;5014719;28;20033;-34
2021/11/18 09:04:17;;;;;;;10.73;3.57;;;;;;;25.36;31.55;97901.16;5018080;28;20036;-38
2021/11/18 09:06:43;;;;;;;11.68;5.13;;;;;;;25.34;29.35;97903.84;5018027;28;20380;-35
2021/11/18 09:09:11;;;;;;;9.48;5.13;;;;;;;25.23;27.20;97912.06;5017335;28;20029;-35
2021/11/18 09:11:37;;;;;;;7.38;5.70;;;;;;;25.07;26.52;97902.97;5016012;28;20052;-35
2021/11/18 09:14:02;;;;;;;14.20;6.82;;;;;;;24.90;26.67;97909.63;5017960;28;20045;-32
2021/11/18 09:16:28;;;;;;;8.85;5.38;;;;;;;24.76;27.49;97897.78;5018576;28;20064;-33
2021/11/18 09:18:54;;;;;;;7.78;4.32;;;;;;;24.69;27.63;97901.50;5034765;28;20086;-34
2021/11/18 09:21:21;;;;;;;6.57;4.50;;;;;;;24.64;27.86;97908.66;5021553;28;20032;-32
2021/11/18 09:24:02;;;;;;;5.35;3.90;;;;;;;24.63;28.07;97912.16;5023221;28;20032;-31
2021/11/18 09:26:29;;;;;;;5.55;3.45;;;;;;;24.63;28.18;97912.16;5041546;28;20497;-33
2021/11/18 09:28:55;;;;;;;8.52;4.00;;;;;;;24.64;28.49;97913.91;5029079;28;20569;-36
2021/11/18 09:31:22;;;;;;;6.35;3.80;;;;;;;24.67;28.44;97919.03;5024331;28;20021;-35
2021/11/18 09:33:48;;;;;;;6.82;3.53;;;;;;;24.68;28.57;97923.38;5031367;28;20249;-35
2021/11/18 09:36:13;;;;;;;4.90;3.00;;;;;;;24.71;28.79;97923.25;5030703;28;20658;-34
2021/11/18 09:38:42;;;;;;;6.00;2.80;;;;;;;24.75;29.30;97935.38;5030064;28;20086;-34
2021/11/18 09:41:23;;;;;;;4.40;3.10;;;;;;;24.79;29.36;97921.28;5033422;28;20025;-35
2021/11/18 09:44:06;;;;;;;7.68;2.95;;;;;;;24.84;29.59;97915.06;5029264;28;20029;-31
2021/11/18 09:46:50;;;;;;;4.97;2.88;;;;;;;24.87;29.69;97914.97;5029627;28;20031;-31
2021/11/18 09:49:46;;;;;;;6.25;2.60;;;;;;;24.91;29.83;97917.44;5028683;28;20045;-30
2021/11/18 09:52:33;;;;;;;7.60;2.92;;;;;;;24.95;29.94;97912.97;5031772;28;20024;-32
2021/11/18 09:55:02;;;;;;;9.38;3.08;;;;;;;24.98;30.08;97918.09;5028614;28;20316;-33
2021/11/18 09:57:33;;;;;;;21.58;4.97;;;;;;;25.00;30.05;97921.53;5044393;28;20116;-34
2021/11/18 10:00:29;;;;;;;28.90;5.70;;;;;;;25.00;30.07;97913.69;5029490;28;20412;-34
2021/11/18 10:03:15;;;;;;;17.15;4.55;;;;;;;25.07;30.22;97921.34;5028206;28;20314;-31
2021/11/18 10:06:04;;;;;;;28.42;5.30;;;;;;;25.09;30.14;97924.78;5031888;28;20057;-37
2021/11/18 10:08:36;;;;;;;20.60;5.03;;;;;;;25.11;30.36;97913.34;5028347;28;20029;-30
2021/11/18 10:11:19;;;;;;;22.88;4.78;;;;;;;25.13;30.37;97914.13;5026229;28;20029;-35
2021/11/18 10:14:06;;;;;;;22.73;5.10;;;;;;;25.15;30.33;97920.19;5027381;28;20024;-35
2021/11/18 10:16:53;;;;;;;17.08;4.40;;;;;;;25.16;30.53;97921.03;5030138;28;20030;-33
2021/11/18 10:19:31;;;;;;;20.60;4.28;;;;;;;25.20;30.46;97916.56;5024493;28;20523;-33
2021/11/18 10:21:58;;;;;;;20.83;4.35;;;;;;;25.20;30.47;97912.16;5025399;28;20032;-33
2021/11/18 10:24:25;;;;;;;23.25;5.45;;;;;;;25.21;30.54;97913.91;5030924;28;20118;-34
2021/11/18 10:27:16;;;;;;;23.50;5.60;;;;;;;25.23;30.80;97906.81;5029187;28;20024;-32
2021/11/18 10:30:12;;;;;;;14.75;4.72;;;;;;;25.25;30.84;97914.63;5018161;28;20040;-31
2021/11/18 10:32:50;;;;;;;16.23;4.95;;;;;;;25.25;30.72;97915.47;5018714;28;20135;-34
2021/11/18 10:35:17;;;;;;;27.55;5.65;;;;;;;25.28;30.81;97912.75;5028826;28;20022;-36
2021/11/18 10:37:47;;;;;;;26.17;4.93;;;;;;;25.28;31.02;97902.28;5027755;28;20029;-34
2021/11/18 10:40:26;;;;;;;16.05;4.40;;;;;;;25.30;30.92;97908.34;5029385;28;20060;-35
2021/11/18 10:43:15;;;;;;;16.33;4.63;;;;;;;25.31;31.03;97907.44;5024916;28;20060;-36
2021/11/18 10:45:40;;;;;;;15.48;4.35;;;;;;;25.34;31.09;97902.97;5028749;28;20048;-32
2021/11/18 10:48:16;;;;;;;14.98;4.40;;;;;;;25.34;31.04;97898.59;5029461;28;20017;-32
2021/11/18 10:50:45;;;;;;;10.48;3.55;;;;;;;25.36;31.06;97901.16;5037094;28;21023;-32
2021/11/18 10:53:25;;;;;;;12.75;4.10;;;;;;;25.37;31.17;97897.63;5028398;28;20133;-33
2021/11/18 10:56:04;;;;;;;11.50;3.80;;;;;;;25.39;31.08;97887.91;5027901;28;20038;-37
2021/11/18 10:58:35;;;;;;;11.77;4.03;;;;;;;25.39;31.14;97880.91;5028081;28;20031;-34
2021/11/18 11:01:11;;;;;;;15.50;3.63;;;;;;;25.40;31.16;97876.53;5029309;28;20029;-36
2021/11/18 11:03:39;;;;;;;8.35;3.25;;;;;;;25.39;31.18;97869.56;5027727;28;20370;-31
2021/11/18 11:06:18;;;;;;;11.88;3.80;;;;;;;25.41;31.23;97862.50;5022132;28;20044;-32
2021/11/18 11:09:02;;;;;;;11.88;3.40;;;;;;;25.43;31.24;97866.78;5018346;28;20112;-33
2021/11/18 11:12:05;;;;;;;12.93;3.55;;;;;;;25.44;31.43;97872.91;5023296;28;20140;-34
2021/11/18 11:14:42;;;;;;;12.02;3.25;;;;;;;25.45;31.37;97864.13;5017834;28;20029;-32
2021/11/18 11:17:28;;;;;;;7.68;3.25;;;;;;;25.44;31.60;97863.25;5019927;28;20162;-36
2021/11/18 11:20:06;;;;;;;7.80;2.72;;;;;;;25.43;31.93;97860.66;5015569;28;20076;-31
2021/11/18 11:23:24;;;;;;;14.88;3.10;;;;;;;25.42;31.88;97866.84;5022106;28;20033;-30
2021/11/18 11:26:25;;;;;;;8.88;2.58;;;;;;;25.43;32.06;97868.53;5000136;28;20676;-30
2021/11/18 11:28:53;;;;;;;8.60;3.00;;;;;;;25.45;32.14;97866.75;5039745;28;20434;-33
2021/11/18 11:31:21;;;;;;;11.95;2.70;;;;;;;25.52;31.96;97860.34;5019214;28;20831;-34
2021/11/18 11:33:59;;;;;;;7.10;2.83;;;;;;;25.61;31.83;97858.34;5022813;28;20131;-33
2021/11/18 11:37:06;;;;;;;8.18;2.80;;;;;;;25.73;31.68;97860.53;5012985;28;20113;-33